Time;durP1;ratioP1;P1;durP2;ratioP2;P2;SDS_P1;SDS_P2;PMS_P1;PMS_P2;Temp;Humidity;BMP_temperature;BMP_pressure;BME280_temperature;BME280_humidity;BME280_pressure;Samples;Min_cycle;Max_cycle;Signal;HPM_P1;HPM_P2
2021/03/10 00:00:20;;;;;;;54.27;26.77;;;;;;;3.52;82.62;101021.63;5093350;28;20212;-68
2021/03/10 00:02:46;;;;;;;52.17;26.30;;;;;;;3.52;82.46;101033.91;5089360;28;20295;-69
2021/03/10 00:05:12;;;;;;;63.40;28.70;;;;;;;3.52;83.14;101032.16;5088761;28;20204;-69
2021/03/10 00:07:39;;;;;;;59.33;28.10;;;;;;;3.51;83.03;101030.44;5092014;28;20269;-68
2021/03/10 00:10:06;;;;;;;60.90;28.23;;;;;;;3.51;83.09;101032.19;5092676;28;20204;-70
2021/03/10 00:12:33;;;;;;;60.03;27.27;;;;;;;3.51;83.00;101034.84;5087577;28;20227;-69
2021/03/10 00:15:00;;;;;;;56.80;27.80;;;;;;;3.50;82.61;101028.69;5086641;28;20288;-69
2021/03/10 00:17:26;;;;;;;57.63;28.90;;;;;;;3.51;82.27;101035.69;5091691;28;20211;-69
2021/03/10 00:19:52;;;;;;;55.93;27.13;;;;;;;3.50;82.90;101041.88;5093282;28;20568;-68
2021/03/10 00:22:18;;;;;;;62.80;28.53;;;;;;;3.49;82.86;101046.28;5086848;28;20609;-69
2021/03/10 00:24:44;;;;;;;67.30;30.10;;;;;;;3.51;82.68;101051.50;5084612;28;20204;-69
2021/03/10 00:27:23;;;;;;;64.43;29.57;;;;;;;3.51;82.59;101040.09;5092665;28;20238;-69
2021/03/10 00:29:49;;;;;;;68.90;30.30;;;;;;;3.52;83.28;101041.81;5091035;28;20200;-69
2021/03/10 00:32:16;;;;;;;58.77;28.40;;;;;;;3.50;83.24;101041.88;5085159;28;20231;-69
2021/03/10 00:34:43;;;;;;;62.10;28.07;;;;;;;3.49;83.45;101040.13;5082863;28;20215;-69
2021/03/10 00:37:09;;;;;;;67.10;31.40;;;;;;;3.49;82.59;101051.53;5081320;28;20273;-69
2021/03/10 00:39:35;;;;;;;60.43;28.13;;;;;;;3.51;82.66;101050.63;5087555;28;20291;-69
2021/03/10 00:42:01;;;;;;;73.93;30.97;;;;;;;3.49;82.70;101051.53;5081789;28;20232;-69
2021/03/10 00:44:27;;;;;;;68.83;29.17;;;;;;;3.50;83.29;101049.75;5083469;28;20208;-69
2021/03/10 00:46:53;;;;;;;67.13;29.30;;;;;;;3.51;83.03;101050.63;5079295;28;20224;-70
2021/03/10 00:49:20;;;;;;;69.07;29.93;;;;;;;3.49;83.56;101056.81;5085906;28;20206;-68
2021/03/10 00:51:46;;;;;;;66.97;28.63;;;;;;;3.51;83.12;101063.78;5081654;28;20315;-69
2021/03/10 00:54:12;;;;;;;65.90;29.90;;;;;;;3.51;83.07;101062.03;5083654;28;20287;-69
2021/03/10 00:56:38;;;;;;;68.90;29.60;;;;;;;3.51;82.79;101053.25;5082688;28;20287;-69
2021/03/10 00:59:04;;;;;;;71.60;32.37;;;;;;;3.51;83.73;101054.13;5078308;28;20304;-69
2021/03/10 01:01:30;;;;;;;67.23;30.43;;;;;;;3.51;83.09;101051.50;5083233;28;20232;-68
2021/03/10 01:03:57;;;;;;;63.00;29.40;;;;;;;3.54;83.11;101053.19;5075398;28;20200;-69
2021/03/10 01:06:25;;;;;;;61.20;30.53;;;;;;;3.53;83.29;101060.22;5083839;28;20228;-68
2021/03/10 01:08:51;;;;;;;68.37;31.00;;;;;;;3.54;83.44;101066.34;5078502;28;20216;-69
2021/03/10 01:11:17;;;;;;;74.23;31.03;;;;;;;3.54;82.93;101067.22;5082438;28;20743;-69
2021/03/10 01:13:44;;;;;;;66.10;30.93;;;;;;;3.53;83.03;101065.47;5092077;28;20204;-69
2021/03/10 01:16:10;;;;;;;60.57;30.43;;;;;;;3.53;83.35;101056.72;5081421;28;20291;-68
2021/03/10 01:18:37;;;;;;;66.27;30.60;;;;;;;3.51;83.12;101056.75;5090738;28;20265;-68
2021/03/10 01:21:03;;;;;;;66.47;29.30;;;;;;;3.51;83.27;101054.13;5089680;28;20201;-68
2021/03/10 01:23:30;;;;;;;69.03;30.80;;;;;;;3.49;83.44;101054.16;5090641;28;20264;-68
2021/03/10 01:25:57;;;;;;;69.20;29.50;;;;;;;3.49;83.36;101050.66;5090473;28;20220;-67
2021/03/10 01:28:23;;;;;;;64.07;30.10;;;;;;;3.48;83.90;101055.06;5091015;28;20208;-67
2021/03/10 01:30:49;;;;;;;62.97;29.93;;;;;;;3.48;83.97;101057.72;5088820;28;20295;-68
2021/03/10 01:33:15;;;;;;;66.60;31.23;;;;;;;3.48;83.11;101056.84;5091088;28;20211;-68
2021/03/10 01:35:41;;;;;;;62.80;29.17;;;;;;;3.47;83.38;101052.47;5088713;28;20244;-68
2021/03/10 01:38:07;;;;;;;63.90;29.27;;;;;;;3.45;83.93;101055.16;5089057;28;20227;-68
2021/03/10 01:40:34;;;;;;;64.83;31.03;;;;;;;3.45;83.53;101055.16;5090472;28;20660;-68
2021/03/10 01:43:01;;;;;;;59.83;29.50;;;;;;;3.46;82.97;101053.38;5089460;28;20235;-68
2021/03/10 01:45:27;;;;;;;70.37;31.40;;;;;;;3.45;83.16;101039.34;5090583;28;20203;-69
2021/03/10 01:47:54;;;;;;;68.67;30.73;;;;;;;3.44;83.88;101042.88;5089560;28;20718;-70
2021/03/10 01:50:20;;;;;;;69.13;31.80;;;;;;;3.45;83.88;101041.13;5091491;28;20682;-70
2021/03/10 01:52:47;;;;;;;67.10;31.13;;;;;;;3.45;83.64;101038.50;5091060;28;20710;-68
2021/03/10 01:55:14;;;;;;;62.87;29.43;;;;;;;3.43;83.53;101041.16;5087116;28;20204;-67
2021/03/10 01:57:41;;;;;;;63.00;31.60;;;;;;;3.42;84.05;101039.44;5087414;28;20222;-69
2021/03/10 02:00:09;;;;;;;63.93;31.07;;;;;;;3.40;83.29;101035.13;5084914;28;20220;-69
2021/03/10 02:02:35;;;;;;;67.07;32.73;;;;;;;3.39;83.27;101036.91;5079111;28;20216;-68
2021/03/10 02:05:03;;;;;;;71.00;31.93;;;;;;;3.39;83.23;101036.03;5087009;28;20250;-68
2021/03/10 02:07:34;;;;;;;70.97;32.77;;;;;;;3.39;83.97;101031.66;5088097;28;20570;-69
2021/03/10 02:10:07;;;;;;;71.87;32.40;;;;;;;3.39;83.49;101036.91;5078526;28;20250;-69
2021/03/10 02:12:40;;;;;;;71.67;31.97;;;;;;;3.36;83.29;101047.53;5080561;28;20225;-69
2021/03/10 02:15:15;;;;;;;68.03;31.73;;;;;;;3.35;83.36;101056.31;5086987;28;20588;-68
2021/03/10 02:17:44;;;;;;;69.00;31.63;;;;;;;3.36;83.74;101052.78;5086662;28;20199;-68
2021/03/10 02:20:28;;;;;;;74.40;32.10;;;;;;;3.36;83.70;101046.66;5077188;28;20212;-69
2021/03/10 02:23:19;;;;;;;65.83;30.37;;;;;;;3.36;84.12;101046.66;5072660;28;20221;-69
2021/03/10 02:26:02;;;;;;;74.37;33.07;;;;;;;3.34;83.35;101043.19;5084943;28;20207;-69
2021/03/10 02:28:31;;;;;;;72.63;32.17;;;;;;;3.36;83.94;101044.03;5083855;28;20203;-69
2021/03/10 02:31:00;;;;;;;63.83;30.63;;;;;;;3.35;83.20;101042.28;5090475;28;20688;-69
2021/03/10 02:33:29;;;;;;;69.40;31.07;;;;;;;3.35;84.07;101040.53;5086578;28;20654;-68
2021/03/10 02:35:59;;;;;;;66.77;30.40;;;;;;;3.36;84.28;101036.13;5079970;28;20570;-69
2021/03/10 02:38:26;;;;;;;69.67;31.47;;;;;;;3.35;83.52;101037.91;5081304;28;20635;-67
2021/03/10 02:40:54;;;;;;;72.93;32.03;;;;;;;3.34;83.94;101044.06;5090795;28;20222;-67
2021/03/10 02:43:21;;;;;;;63.90;30.37;;;;;;;3.33;83.78;101044.97;5091043;28;20207;-69
2021/03/10 02:45:50;;;;;;;72.70;32.60;;;;;;;3.33;83.52;101047.59;5079212;28;20207;-68
2021/03/10 02:48:17;;;;;;;65.77;31.60;;;;;;;3.34;83.39;101038.78;5085701;28;20721;-69
2021/03/10 02:50:44;;;;;;;64.33;31.20;;;;;;;3.34;84.10;101043.19;5090529;28;20200;-68
2021/03/10 02:53:11;;;;;;;68.70;31.43;;;;;;;3.35;83.88;101051.06;5077472;28;20226;-69
2021/03/10 02:55:39;;;;;;;71.17;32.27;;;;;;;3.35;84.46;101047.56;5090831;28;20204;-69
2021/03/10 02:58:07;;;;;;;59.43;30.20;;;;;;;3.35;84.15;101050.19;5084234;28;20693;-69
2021/03/10 03:00:35;;;;;;;67.10;30.20;;;;;;;3.35;84.23;101048.44;5086384;28;20208;-68
2021/03/10 03:03:02;;;;;;;67.10;32.30;;;;;;;3.36;83.95;101058.06;5074529;28;20749;-67
2021/03/10 03:05:28;;;;;;;66.20;31.50;;;;;;;3.35;84.23;101056.31;5078997;28;20261;-68
2021/03/10 03:07:54;;;;;;;63.40;29.53;;;;;;;3.35;83.76;101055.47;5082108;28;20224;-68
2021/03/10 03:10:22;;;;;;;62.87;31.17;;;;;;;3.33;83.58;101047.59;5080473;28;20272;-69
2021/03/10 03:12:49;;;;;;;66.47;32.03;;;;;;;3.34;83.97;101056.38;5093787;28;20234;-69
2021/03/10 03:15:18;;;;;;;60.63;29.37;;;;;;;3.33;83.99;101055.50;5087470;28;20258;-71
2021/03/10 03:17:45;;;;;;;67.23;30.23;;;;;;;3.33;84.12;101052.00;5094098;28;20299;-70
2021/03/10 03:20:15;;;;;;;62.77;30.07;;;;;;;3.32;84.21;101056.41;5087903;28;20737;-68
2021/03/10 03:22:43;;;;;;;66.17;30.07;;;;;;;3.31;84.13;101059.94;5088525;28;20319;-68
2021/03/10 03:25:12;;;;;;;64.00;30.37;;;;;;;3.31;83.85;101051.19;5079929;28;20296;-69
2021/03/10 03:27:39;;;;;;;60.40;29.13;;;;;;;3.31;84.15;101054.66;5078225;28;20778;-68
2021/03/10 03:30:07;;;;;;;64.73;28.73;;;;;;;3.31;83.96;101059.06;5083206;28;20205;-69
2021/03/10 03:32:35;;;;;;;58.50;29.13;;;;;;;3.31;84.21;101048.53;5097085;28;20242;-69
2021/03/10 03:35:01;;;;;;;64.20;29.63;;;;;;;3.30;84.19;101044.19;5092753;28;20883;-68
2021/03/10 03:37:28;;;;;;;59.40;29.00;;;;;;;3.29;84.34;101045.09;5093257;28;20197;-69
2021/03/10 03:39:54;;;;;;;61.37;30.33;;;;;;;3.30;84.00;101036.28;5084597;28;20206;-69
2021/03/10 03:42:21;;;;;;;60.63;29.20;;;;;;;3.30;83.76;101039.78;5093623;28;20444;-68
2021/03/10 03:44:47;;;;;;;56.93;28.77;;;;;;;3.29;83.32;101051.22;5088212;28;20201;-69
2021/03/10 03:47:14;;;;;;;58.23;28.30;;;;;;;3.31;83.46;101043.28;5082801;28;20785;-68
2021/03/10 03:49:41;;;;;;;61.43;29.20;;;;;;;3.31;83.68;101041.50;5085825;28;20306;-68
2021/03/10 03:52:08;;;;;;;57.73;28.43;;;;;;;3.31;84.33;101041.50;5094076;28;20308;-68
2021/03/10 03:54:35;;;;;;;59.37;28.20;;;;;;;3.29;83.34;101038.06;5098382;28;20200;-67
2021/03/10 03:57:01;;;;;;;56.63;29.23;;;;;;;3.27;84.00;101024.06;5087087;28;20207;-69
2021/03/10 03:59:27;;;;;;;60.50;29.87;;;;;;;3.26;83.84;101029.38;5084424;28;20283;-68
2021/03/10 04:01:53;;;;;;;53.70;27.07;;;;;;;3.24;84.24;101033.81;5091132;28;20226;-69
2021/03/10 04:04:19;;;;;;;58.63;29.20;;;;;;;3.23;83.59;101035.56;5083677;28;20307;-67
2021/03/10 04:06:47;;;;;;;64.60;30.90;;;;;;;3.22;83.74;101044.41;5080995;28;20785;-67
2021/03/10 04:09:13;;;;;;;63.57;30.97;;;;;;;3.23;84.19;101045.22;5086403;28;20204;-69
2021/03/10 04:11:41;;;;;;;59.80;29.90;;;;;;;3.22;84.21;101039.13;5087792;28;20721;-68
2021/03/10 04:14:07;;;;;;;67.00;30.27;;;;;;;3.22;83.77;101039.13;5096988;28;20210;-69
2021/03/10 04:16:33;;;;;;;67.63;29.77;;;;;;;3.22;84.19;101025.13;5086094;28;20367;-69
2021/03/10 04:18:59;;;;;;;63.60;31.70;;;;;;;3.22;84.20;101038.28;5090470;28;20227;-69
2021/03/10 04:21:25;;;;;;;63.27;29.63;;;;;;;3.22;84.19;101046.19;5079531;28;20736;-68
2021/03/10 04:23:52;;;;;;;63.70;29.13;;;;;;;3.21;83.68;101047.06;5089617;28;20205;-68
2021/03/10 04:26:18;;;;;;;62.07;29.37;;;;;;;3.21;83.94;101042.69;5080536;28;20233;-68
2021/03/10 04:28:45;;;;;;;62.13;28.37;;;;;;;3.21;83.85;101061.09;5090707;28;20631;-68
2021/03/10 04:31:11;;;;;;;67.63;29.63;;;;;;;3.20;83.89;101062.00;5087829;28;20221;-68
2021/03/10 04:33:37;;;;;;;61.00;30.07;;;;;;;3.20;83.70;101066.41;5082825;28;20214;-68
2021/03/10 04:36:04;;;;;;;62.93;28.87;;;;;;;3.18;83.53;101069.06;5076612;28;20206;-68
2021/03/10 04:38:30;;;;;;;60.43;30.40;;;;;;;3.18;83.41;101062.94;5079853;28;20200;-68
2021/03/10 04:40:56;;;;;;;68.67;29.90;;;;;;;3.16;84.15;101065.63;5089870;28;20295;-68
2021/03/10 04:43:22;;;;;;;66.93;29.80;;;;;;;3.15;83.38;101063.88;5083101;28;20307;-69
2021/03/10 04:45:49;;;;;;;67.80;30.97;;;;;;;3.16;83.41;101059.47;5075040;28;20209;-68
2021/03/10 04:48:15;;;;;;;67.83;29.87;;;;;;;3.14;83.71;101068.28;5079219;28;20227;-68
2021/03/10 04:50:41;;;;;;;65.80;29.63;;;;;;;3.13;83.94;101063.06;5076394;28;20215;-68
2021/03/10 04:53:07;;;;;;;63.13;29.10;;;;;;;3.11;83.24;101063.09;5090598;28;20311;-68
2021/03/10 04:55:33;;;;;;;66.43;29.90;;;;;;;3.11;83.75;101062.22;5083158;28;20205;-68
2021/03/10 04:57:59;;;;;;;70.10;31.53;;;;;;;3.09;84.05;101054.38;5089502;28;20196;-68
2021/03/10 05:00:26;;;;;;;58.73;29.73;;;;;;;3.08;83.75;101055.28;5084752;28;20213;-68
2021/03/10 05:02:53;;;;;;;65.87;29.80;;;;;;;3.08;84.20;101057.03;5083913;28;20736;-68
2021/03/10 05:05:19;;;;;;;63.37;29.10;;;;;;;3.07;84.11;101060.56;5088595;28;20277;-68
2021/03/10 05:07:45;;;;;;;61.73;29.23;;;;;;;3.07;84.09;101063.19;5086589;28;20775;-68
2021/03/10 05:10:12;;;;;;;65.20;31.87;;;;;;;3.06;84.13;101069.38;5094906;28;20621;-68
2021/03/10 05:12:39;;;;;;;61.30;29.40;;;;;;;3.05;84.17;101062.38;5079308;28;20247;-67
2021/03/10 05:15:06;;;;;;;57.87;28.63;;;;;;;3.04;83.80;101065.94;5089029;28;20216;-69
2021/03/10 05:17:33;;;;;;;58.17;28.30;;;;;;;3.01;83.49;101072.13;5094536;28;20562;-68
2021/03/10 05:20:00;;;;;;;63.50;28.47;;;;;;;2.99;83.54;101073.94;5088839;28;20203;-68
2021/03/10 05:22:27;;;;;;;59.57;29.63;;;;;;;2.97;83.57;101075.75;5087423;28;20234;-69
2021/03/10 05:24:54;;;;;;;59.27;28.27;;;;;;;2.95;83.51;101081.94;5091699;28;20207;-69
2021/03/10 05:27:20;;;;;;;49.40;25.17;;;;;;;2.93;83.81;101078.50;5080902;28;20311;-68
2021/03/10 05:29:46;;;;;;;53.60;26.67;;;;;;;2.88;83.35;101085.63;5081678;28;20684;-67
2021/03/10 05:32:13;;;;;;;50.50;25.57;;;;;;;2.82;83.37;101083.16;5085905;28;20221;-67
2021/03/10 05:34:39;;;;;;;56.47;28.27;;;;;;;2.76;83.32;101082.41;5089313;28;20207;-69
2021/03/10 05:37:06;;;;;;;49.90;24.83;;;;;;;2.74;83.57;101083.34;5090254;28;20200;-69
2021/03/10 05:39:32;;;;;;;49.87;24.70;;;;;;;2.72;83.53;101090.41;5088722;28;20205;-68
2021/03/10 05:41:59;;;;;;;58.67;26.63;;;;;;;2.72;83.00;101075.47;5090353;28;20238;-69
2021/03/10 05:44:26;;;;;;;52.97;25.90;;;;;;;2.73;83.50;101078.97;5089835;28;20212;-68
2021/03/10 05:46:53;;;;;;;49.80;25.17;;;;;;;2.71;83.42;101079.00;5089046;28;20303;-68
2021/03/10 05:49:19;;;;;;;58.60;26.40;;;;;;;2.72;83.62;101083.38;5087183;28;20666;-68
2021/03/10 05:51:45;;;;;;;56.83;26.83;;;;;;;2.71;83.81;101086.03;5092406;28;20223;-66
2021/03/10 05:54:13;;;;;;;55.33;27.07;;;;;;;2.71;83.80;101089.53;5094088;28;20215;-68
2021/03/10 05:56:42;;;;;;;55.03;26.77;;;;;;;2.70;83.83;101086.94;5086352;28;20291;-68
2021/03/10 05:59:08;;;;;;;60.20;27.17;;;;;;;2.70;83.96;101093.06;5088364;28;20257;-68
2021/03/10 06:01:34;;;;;;;55.47;26.63;;;;;;;2.71;83.08;101091.28;5088742;28;20226;-69
2021/03/10 06:04:02;;;;;;;54.13;25.70;;;;;;;2.71;83.68;101099.19;5092153;28;20200;-68
2021/03/10 06:06:34;;;;;;;55.10;27.47;;;;;;;2.70;83.06;101108.84;5083402;28;20235;-69
2021/03/10 06:09:10;;;;;;;55.53;27.93;;;;;;;2.70;83.57;101103.56;5082567;28;20211;-68
2021/03/10 06:11:37;;;;;;;53.13;25.67;;;;;;;2.71;83.65;101102.69;5083462;28;20740;-70
2021/03/10 06:14:06;;;;;;;59.80;27.77;;;;;;;2.70;83.66;101095.69;5083668;28;20207;-68
2021/03/10 06:16:32;;;;;;;58.33;28.87;;;;;;;2.71;83.00;101094.78;5084588;28;20192;-68
2021/03/10 06:19:03;;;;;;;56.03;27.63;;;;;;;2.72;83.02;101086.00;5089157;28;20617;-68
2021/03/10 06:21:29;;;;;;;54.33;26.53;;;;;;;2.72;83.44;101090.41;5086294;28;20220;-68
2021/03/10 06:23:57;;;;;;;45.30;23.90;;;;;;;2.69;83.28;101096.59;5089825;28;20211;-68
2021/03/10 06:26:24;;;;;;;51.90;25.87;;;;;;;2.66;82.92;101095.81;5086444;28;20606;-65
2021/03/10 06:28:52;;;;;;;56.03;26.10;;;;;;;2.63;83.42;101094.13;5082564;28;20216;-68
2021/03/10 06:31:20;;;;;;;59.20;27.30;;;;;;;2.64;83.75;101097.63;5093516;28;20220;-70
2021/03/10 06:33:58;;;;;;;55.37;26.23;;;;;;;2.65;83.80;101104.63;5083766;28;20226;-70
2021/03/10 06:36:25;;;;;;;52.20;26.03;;;;;;;2.66;83.33;101098.44;5089666;28;20235;-69
2021/03/10 06:38:52;;;;;;;58.50;28.10;;;;;;;2.68;84.20;101100.16;5086589;28;20204;-70
2021/03/10 06:41:27;;;;;;;55.50;27.33;;;;;;;2.72;83.70;101106.19;5090114;28;20256;-73
2021/03/10 06:43:55;;;;;;;60.60;27.90;;;;;;;2.74;84.32;101105.25;5088307;28;20215;-70
2021/03/10 06:46:21;;;;;;;60.07;28.73;;;;;;;2.78;83.85;101100.78;5089388;28;20210;-70
2021/03/10 06:48:55;;;;;;;65.03;30.23;;;;;;;2.81;83.91;101099.84;5083931;28;20289;-72
2021/03/10 06:51:21;;;;;;;64.40;30.77;;;;;;;2.85;84.09;101098.88;5085729;28;20227;-70
2021/03/10 06:53:48;;;;;;;61.47;28.80;;;;;;;2.90;84.20;101104.88;5084174;28;20197;-70
2021/03/10 06:56:18;;;;;;;58.67;28.47;;;;;;;2.94;84.23;101091.59;5081768;28;20218;-70
2021/03/10 06:58:55;;;;;;;55.73;27.83;;;;;;;2.99;84.53;101104.66;5081614;28;20197;-70
2021/03/10 07:01:22;;;;;;;57.83;28.60;;;;;;;3.04;84.10;101108.03;5080956;28;20720;-71
2021/03/10 07:03:50;;;;;;;56.90;28.77;;;;;;;3.07;83.73;101102.69;5084611;28;20208;-69
2021/03/10 07:06:18;;;;;;;58.93;29.17;;;;;;;3.11;83.82;101105.19;5082203;28;20205;-70
2021/03/10 07:08:45;;;;;;;53.83;27.33;;;;;;;3.16;83.48;101110.34;5086668;28;20196;-71
2021/03/10 07:11:14;;;;;;;56.33;27.07;;;;;;;3.19;83.68;101114.69;5083442;28;20220;-72
2021/03/10 07:13:40;;;;;;;57.00;27.20;;;;;;;3.22;84.58;101122.50;5084379;28;20206;-71
2021/03/10 07:16:09;;;;;;;53.77;26.10;;;;;;;3.23;84.55;101127.69;5086711;28;20200;-68
2021/03/10 07:18:36;;;;;;;53.17;26.23;;;;;;;3.26;84.35;101134.66;5086896;28;20291;-69
2021/03/10 07:21:05;;;;;;;57.43;28.70;;;;;;;3.30;84.21;101125.78;5085434;28;20200;-70
2021/03/10 07:23:36;;;;;;;51.27;26.57;;;;;;;3.33;83.79;101133.59;5085406;28;20638;-72
2021/03/10 07:26:03;;;;;;;52.67;26.20;;;;;;;3.36;84.33;101131.78;5085911;28;20212;-69
2021/03/10 07:28:31;;;;;;;56.40;27.60;;;;;;;3.39;84.04;101129.06;5086400;28;20223;-69
2021/03/10 07:30:57;;;;;;;53.30;26.47;;;;;;;3.41;83.58;101127.22;5086892;28;20204;-72
2021/03/10 07:33:25;;;;;;;51.83;26.63;;;;;;;3.46;84.03;101125.34;5086583;28;20574;-73
2021/03/10 07:35:54;;;;;;;51.37;26.83;;;;;;;3.50;83.65;101134.03;5087073;28;20200;-70
2021/03/10 07:38:22;;;;;;;56.17;28.43;;;;;;;3.55;84.21;101131.28;5079881;28;20287;-70
2021/03/10 07:40:56;;;;;;;52.83;26.87;;;;;;;3.59;83.72;101139.03;5087505;28;20215;-70
2021/03/10 07:43:33;;;;;;;50.87;26.97;;;;;;;3.64;84.55;101142.41;5096778;22;20323;-69
2021/03/10 07:46:00;;;;;;;46.23;25.27;;;;;;;3.68;83.67;101140.56;5073934;28;20222;-69
2021/03/10 07:48:31;;;;;;;48.87;26.30;;;;;;;3.70;83.45;101137.00;5057936;28;20229;-67
2021/03/10 07:50:57;;;;;;;49.50;25.90;;;;;;;3.71;83.44;101135.22;5054510;28;20332;-68
2021/03/10 07:53:23;;;;;;;51.83;26.83;;;;;;;3.75;83.46;101147.41;5056362;28;20229;-66
2021/03/10 07:55:50;;;;;;;50.33;25.40;;;;;;;3.78;83.30;101150.81;5060376;28;20480;-68
2021/03/10 07:58:26;;;;;;;50.23;26.97;;;;;;;3.81;83.41;101155.13;5058391;28;20231;-68
2021/03/10 08:00:52;;;;;;;53.70;27.87;;;;;;;3.86;83.14;101155.00;5061523;28;20270;-67
2021/03/10 08:03:30;;;;;;;46.93;26.87;;;;;;;3.88;83.47;101146.16;5061408;28;20221;-68
2021/03/10 08:06:01;;;;;;;46.83;25.67;;;;;;;3.90;82.88;101136.44;5058754;28;20287;-67
2021/03/10 08:08:34;;;;;;;51.13;26.80;;;;;;;3.92;83.53;101153.09;5064448;28;20217;-68
2021/03/10 08:11:13;;;;;;;46.70;25.97;;;;;;;3.96;83.49;101146.78;5059706;28;20208;-67
2021/03/10 08:13:39;;;;;;;50.80;26.33;;;;;;;4.00;83.26;101140.53;5064720;28;20482;-68
2021/03/10 08:16:07;;;;;;;45.60;24.47;;;;;;;4.04;82.84;101141.31;5058816;28;20284;-70
2021/03/10 08:18:34;;;;;;;47.67;26.00;;;;;;;4.05;82.71;101141.28;5066725;28;20205;-69
2021/03/10 08:21:11;;;;;;;45.30;24.83;;;;;;;4.08;82.72;101149.09;5061452;28;20612;-67
2021/03/10 08:23:38;;;;;;;49.47;25.57;;;;;;;4.11;82.52;101153.44;5057285;28;20687;-70
2021/03/10 08:26:05;;;;;;;44.67;25.10;;;;;;;4.13;82.65;101143.66;5052213;28;20296;-67
2021/03/10 08:28:35;;;;;;;45.70;23.97;;;;;;;4.14;81.98;101153.31;5062561;28;20228;-68
2021/03/10 08:31:03;;;;;;;42.90;24.33;;;;;;;4.17;82.35;101148.81;5066659;28;20239;-69
2021/03/10 08:33:29;;;;;;;45.30;25.30;;;;;;;4.23;81.78;101152.19;5050504;28;20236;-68
2021/03/10 08:35:57;;;;;;;40.37;23.00;;;;;;;4.29;81.37;101152.91;5057729;28;20209;-69
2021/03/10 08:38:23;;;;;;;44.03;24.13;;;;;;;4.32;81.50;101146.63;5057548;28;20288;-68
2021/03/10 08:40:50;;;;;;;43.33;24.47;;;;;;;4.37;81.63;101145.59;5052968;28;20211;-68
2021/03/10 08:43:18;;;;;;;44.43;24.00;;;;;;;4.42;81.43;101143.69;5055519;28;20233;-68
2021/03/10 08:45:44;;;;;;;43.47;24.07;;;;;;;4.47;80.75;101152.34;5053182;28;20216;-68
2021/03/10 08:48:12;;;;;;;43.57;24.33;;;;;;;4.52;80.98;101154.81;5054074;28;20230;-68
2021/03/10 08:50:41;;;;;;;35.93;22.53;;;;;;;4.59;80.10;101151.09;5053162;28;20675;-69
2021/03/10 08:53:09;;;;;;;38.17;21.63;;;;;;;4.66;79.97;101149.97;5057342;28;20827;-67
2021/03/10 08:55:35;;;;;;;36.83;22.77;;;;;;;4.68;79.60;101152.56;5057171;28;20292;-69
2021/03/10 08:58:08;;;;;;;39.47;22.83;;;;;;;4.71;79.47;101141.91;5058066;28;20201;-69
2021/03/10 09:00:34;;;;;;;40.00;22.83;;;;;;;4.79;79.01;101150.47;5056887;28;20215;-68
2021/03/10 09:03:09;;;;;;;36.47;21.47;;;;;;;4.83;78.66;101147.69;5054982;28;20284;-68
2021/03/10 09:05:35;;;;;;;34.00;20.93;;;;;;;4.86;78.64;101146.72;5055388;28;20193;-67
2021/03/10 09:08:02;;;;;;;34.23;21.00;;;;;;;4.91;78.23;101151.84;5055946;28;20366;-68
2021/03/10 09:10:30;;;;;;;30.50;19.90;;;;;;;4.98;78.35;101156.91;5056299;28;20210;-69
2021/03/10 09:12:56;;;;;;;36.80;22.63;;;;;;;5.06;77.88;101156.63;5052739;28;20263;-68
2021/03/10 09:15:25;;;;;;;36.03;21.73;;;;;;;5.13;77.17;101158.16;5052700;28;20209;-68
2021/03/10 09:17:52;;;;;;;35.97;22.33;;;;;;;5.18;77.15;101148.31;5054960;28;20543;-69
2021/03/10 09:20:24;;;;;;;32.90;20.70;;;;;;;5.20;76.61;101159.69;5054671;28;20216;-68
2021/03/10 09:22:51;;;;;;;34.73;21.70;;;;;;;5.24;76.26;101153.38;5055369;28;20229;-69
2021/03/10 09:25:20;;;;;;;34.50;20.93;;;;;;;5.29;76.39;101154.09;5056121;28;20198;-68
2021/03/10 09:27:47;;;;;;;35.00;22.13;;;;;;;5.35;75.43;101148.63;5054648;28;20278;-67
2021/03/10 09:30:26;;;;;;;39.13;22.57;;;;;;;5.42;75.25;101143.97;5055186;28;20781;-67
2021/03/10 09:32:52;;;;;;;35.67;20.80;;;;;;;5.45;74.78;101141.25;5056820;28;20311;-69
2021/03/10 09:35:21;;;;;;;36.10;21.77;;;;;;;5.50;74.61;101129.59;5055831;28;20291;-68
2021/03/10 09:37:50;;;;;;;34.87;20.33;;;;;;;5.57;74.47;101127.59;5053382;28;20197;-68
2021/03/10 09:40:18;;;;;;;35.17;20.73;;;;;;;5.64;73.85;101133.53;5053845;28;20662;-68
2021/03/10 09:42:55;;;;;;;33.67;20.20;;;;;;;5.68;73.37;101128.09;5053252;28;20327;-68
2021/03/10 09:45:22;;;;;;;33.60;21.10;;;;;;;5.77;73.30;101129.53;5056116;28;20200;-68
2021/03/10 09:47:49;;;;;;;36.70;19.67;;;;;;;5.82;72.80;101123.16;5055205;28;20275;-68
2021/03/10 09:50:25;;;;;;;33.20;19.87;;;;;;;5.85;72.44;101115.13;5056725;28;20205;-69
2021/03/10 09:52:52;;;;;;;34.67;20.73;;;;;;;5.89;72.05;101118.56;5056637;28;20728;-69
2021/03/10 09:55:20;;;;;;;30.33;20.00;;;;;;;5.95;71.79;101114.81;5053605;28;20305;-69
2021/03/10 09:57:46;;;;;;;28.37;18.43;;;;;;;5.98;71.28;101112.94;5054850;28;20578;-68
2021/03/10 10:00:20;;;;;;;31.87;19.27;;;;;;;5.99;70.63;101112.00;5058173;28;20209;-68
2021/03/10 10:02:47;;;;;;;28.37;18.77;;;;;;;6.04;70.59;101101.28;5055162;28;20229;-67
2021/03/10 10:05:22;;;;;;;30.83;18.33;;;;;;;6.09;70.21;101099.31;5055017;28;20205;-68
2021/03/10 10:07:48;;;;;;;28.10;18.17;;;;;;;6.15;69.87;101092.00;5053081;28;20415;-68
2021/03/10 10:10:15;;;;;;;25.07;16.97;;;;;;;6.19;69.29;101090.97;5052289;28;20252;-68
2021/03/10 10:12:45;;;;;;;29.30;18.90;;;;;;;6.23;68.80;101089.94;5051919;28;20320;-68
2021/03/10 10:15:16;;;;;;;27.30;17.03;;;;;;;6.28;68.53;101085.31;5054227;28;20675;-68
2021/03/10 10:17:45;;;;;;;27.57;17.07;;;;;;;6.35;68.08;101085.94;5054019;28;20601;-67
2021/03/10 10:20:14;;;;;;;22.47;15.23;;;;;;;6.38;67.25;101085.84;5054878;28;20481;-68
2021/03/10 10:22:41;;;;;;;25.57;17.10;;;;;;;6.39;66.88;101082.28;5054742;28;20237;-67
2021/03/10 10:25:07;;;;;;;24.70;16.93;;;;;;;6.42;66.48;101076.88;5051797;28;20620;-68
2021/03/10 10:27:33;;;;;;;24.43;16.03;;;;;;;6.50;66.25;101071.25;5053143;28;20308;-69
2021/03/10 10:30:03;;;;;;;27.03;17.03;;;;;;;6.56;65.61;101084.25;5050636;28;20206;-70
2021/03/10 10:32:29;;;;;;;22.00;15.30;;;;;;;6.60;65.63;101085.84;5053126;28;20241;-68
2021/03/10 10:34:56;;;;;;;28.73;17.60;;;;;;;6.62;65.09;101084.00;5058512;28;20212;-67
2021/03/10 10:37:22;;;;;;;20.97;14.43;;;;;;;6.64;65.03;101074.19;5060390;28;20248;-68
2021/03/10 10:39:49;;;;;;;24.07;16.70;;;;;;;6.70;64.95;101073.09;5057799;28;20205;-68
2021/03/10 10:42:15;;;;;;;22.37;15.80;;;;;;;6.71;64.28;101072.19;5058751;28;20604;-66
2021/03/10 10:44:41;;;;;;;22.17;15.70;;;;;;;6.75;64.07;101079.94;5058709;28;20208;-68
2021/03/10 10:47:08;;;;;;;24.13;16.30;;;;;;;6.81;64.19;101084.97;5057112;28;20233;-68
2021/03/10 10:49:34;;;;;;;23.13;16.13;;;;;;;6.85;63.81;101078.63;5059434;28;20201;-68
2021/03/10 10:52:01;;;;;;;21.67;15.77;;;;;;;6.91;63.29;101073.09;5057821;28;20221;-68
2021/03/10 10:54:27;;;;;;;23.03;16.37;;;;;;;6.94;63.28;101080.03;5060164;28;20205;-68
2021/03/10 10:56:53;;;;;;;23.43;15.97;;;;;;;6.98;62.83;101073.72;5058429;28;20205;-67
2021/03/10 10:59:19;;;;;;;20.53;15.37;;;;;;;7.02;62.31;101066.47;5057697;28;20202;-68
2021/03/10 11:01:45;;;;;;;24.60;17.47;;;;;;;7.01;61.28;101073.56;5063431;28;20309;-67
2021/03/10 11:04:12;;;;;;;21.30;13.73;;;;;;;7.01;61.37;101075.34;5064598;28;20300;-68
2021/03/10 11:06:38;;;;;;;23.00;15.83;;;;;;;7.03;60.96;101070.84;5064466;28;20205;-68
2021/03/10 11:09:05;;;;;;;21.67;15.93;;;;;;;7.05;61.18;101066.34;5064691;28;20343;-69
2021/03/10 11:11:32;;;;;;;22.77;15.57;;;;;;;7.05;60.81;101071.63;5061795;28;20216;-67
2021/03/10 11:13:58;;;;;;;19.83;14.47;;;;;;;7.07;60.68;101069.78;5061384;28;20300;-69
2021/03/10 11:16:24;;;;;;;18.30;13.67;;;;;;;7.11;59.88;101068.75;5063352;28;20219;-70
2021/03/10 11:18:51;;;;;;;20.70;14.63;;;;;;;7.16;59.76;101072.06;5060587;28;20202;-67